Aigen Im Ennstal, Austria
Current Conditions -  °F | °C
As of 10:50 PM on Monday 24 Nov 2014 (Local Time) from LOXZ Reporting Station
Overcast Overcast  
Wind Chill: 37°   Ceiling: 600
Heat Index: 37°   Visibility: 6mi
Dew Point: 37°   Wind: 1mph
Humidity: 100%   Direction: NA
Pressure: 30.24"   Gusts: NA
Location:  47.52°N, 14.14°E
Report Text: LOXZ 242050Z VRB01KT 10KM FEW004ST OVC006ST 03/03 Q1024 RMKOVC
Loading
Personal Weather Stations






























Interactive Weather Map New forecast layout! Learn more

10-Day Weather Forecast

Advertisements
Track Severe Weather on mobile